createdAt,value
2018-05-23T00:01:42.360Z,2.10
2018-05-23T00:04:10.741Z,2.30
2018-05-23T00:06:39.088Z,1.90
2018-05-23T00:09:07.466Z,2.03
2018-05-23T00:11:35.795Z,2.10
2018-05-23T00:14:05.096Z,1.83
2018-05-23T00:16:33.466Z,2.17
2018-05-23T00:19:02.805Z,2.30
2018-05-23T00:21:31.208Z,2.17
2018-05-23T00:24:07.884Z,2.17
2018-05-23T00:26:36.292Z,2.43
2018-05-23T00:29:04.700Z,2.40
2018-05-23T00:31:33.019Z,2.33
2018-05-23T00:34:02.149Z,1.73
2018-05-23T00:36:30.874Z,2.27
2018-05-23T00:39:00.528Z,1.80
2018-05-23T00:41:30.339Z,2.10
2018-05-23T00:43:59.525Z,1.93
2018-05-23T00:46:27.850Z,1.90
2018-05-23T00:48:56.270Z,1.87
2018-05-23T00:51:24.934Z,2.37
2018-05-23T00:53:53.237Z,1.50
2018-05-23T00:56:22.334Z,1.70
2018-05-23T00:58:51.306Z,1.80
2018-05-23T01:01:19.698Z,1.87
2018-05-23T01:03:48.943Z,1.60
2018-05-23T01:06:17.961Z,1.70
2018-05-23T01:08:46.484Z,1.80
2018-05-23T01:11:15.228Z,1.80
2018-05-23T01:13:44.278Z,1.73
2018-05-23T01:16:12.691Z,1.67
2018-05-23T01:18:40.993Z,1.90
2018-05-23T01:21:10.091Z,2.03
2018-05-23T01:23:38.393Z,1.90
2018-05-23T01:26:06.827Z,1.73
2018-05-23T01:28:35.885Z,1.73
2018-05-23T01:31:04.270Z,1.73
2018-05-23T01:33:32.581Z,1.70
2018-05-23T01:36:01.040Z,1.60
2018-05-23T01:38:29.342Z,1.93
2018-05-23T01:40:57.674Z,1.87
2018-05-23T01:43:26.745Z,1.70
2018-05-23T01:45:55.070Z,1.60
2018-05-23T01:48:23.485Z,1.70
2018-05-23T01:50:51.875Z,1.63
2018-05-23T01:53:21.113Z,1.90
2018-05-23T01:55:49.482Z,1.90
2018-05-23T01:58:18.516Z,1.60
2018-05-23T02:00:46.967Z,1.43
2018-05-23T02:06:24.379Z,1.87
2018-05-23T02:08:53.377Z,1.60
2018-05-23T02:11:23.602Z,1.70
2018-05-23T02:13:52.735Z,1.77
2018-05-23T02:16:24.621Z,1.93
2018-05-23T02:18:53.667Z,1.70
2018-05-23T02:21:22.850Z,1.53
2018-05-23T02:24:02.751Z,1.63
2018-05-23T02:26:33.356Z,1.77
2018-05-23T02:29:02.152Z,1.80
2018-05-23T02:31:31.667Z,1.90
2018-05-23T02:34:01.794Z,1.67
2018-05-23T02:36:31.987Z,1.50
2018-05-23T02:39:01.330Z,1.60
2018-05-23T02:41:30.734Z,1.77
2018-05-23T02:44:01.574Z,1.77
2018-05-23T02:46:30.658Z,1.77
2018-05-23T02:49:00.182Z,1.60
2018-05-23T02:51:30.370Z,2.10
2018-05-23T02:54:00.541Z,1.60
2018-05-23T02:56:30.386Z,1.60
2018-05-23T02:58:58.802Z,1.63
2018-05-23T03:01:28.982Z,1.60
2018-05-23T03:04:01.338Z,1.80
2018-05-23T03:06:31.335Z,1.90
2018-05-23T03:09:01.459Z,1.73
2018-05-23T03:11:32.407Z,1.70
2018-05-23T03:14:01.072Z,1.60
2018-05-23T03:16:31.377Z,1.60
2018-05-23T03:19:00.250Z,1.47
2018-05-23T03:21:30.390Z,1.60
2018-05-23T03:24:02.753Z,1.70
2018-05-23T03:26:32.529Z,1.70
2018-05-23T03:29:02.535Z,1.50
2018-05-23T03:31:35.579Z,1.73
2018-05-23T03:34:06.391Z,2.00
2018-05-23T03:36:35.681Z,1.50
2018-05-23T03:39:05.281Z,1.70
2018-05-23T03:41:33.924Z,1.70
2018-05-23T03:44:03.053Z,1.60
2018-05-23T03:56:24.966Z,2.00
2018-05-23T03:58:55.802Z,1.93
2018-05-23T04:01:37.170Z,1.80
2018-05-23T04:04:18.038Z,2.00
2018-05-23T04:07:06.673Z,1.80
2018-05-23T04:09:35.941Z,2.00
2018-05-23T04:12:06.500Z,2.10
2018-05-23T04:14:36.666Z,1.90
2018-05-23T04:17:09.566Z,2.23
2018-05-23T04:19:40.694Z,2.00
2018-05-23T04:22:10.046Z,1.83
2018-05-23T04:24:39.586Z,2.00
2018-05-23T04:27:10.354Z,1.83
2018-05-23T04:29:38.983Z,1.80
2018-05-23T04:32:08.759Z,2.03
2018-05-23T04:34:38.550Z,2.00
2018-05-23T04:37:07.638Z,2.20
2018-05-23T04:39:38.194Z,2.33
2018-05-23T04:42:07.855Z,2.23
2018-05-23T04:44:37.662Z,1.83
2018-05-23T04:47:10.071Z,2.30
2018-05-23T04:49:38.886Z,2.10
2018-05-23T04:52:09.019Z,2.10
2018-05-23T04:54:38.358Z,2.00
2018-05-23T04:57:08.214Z,2.07
2018-05-23T04:59:37.405Z,2.20
2018-05-23T05:02:07.083Z,2.00
2018-05-23T05:04:35.703Z,2.23
2018-05-23T05:09:42.169Z,1.90
2018-05-23T05:12:11.830Z,2.03
2018-05-23T05:14:41.219Z,2.20
2018-05-23T05:20:00.019Z,2.10
2018-05-23T05:22:29.738Z,2.00
2018-05-23T05:24:59.748Z,2.30
2018-05-23T05:27:28.125Z,2.40
2018-05-23T05:29:58.694Z,2.23
2018-05-23T05:32:27.270Z,2.10
2018-05-23T05:34:57.551Z,1.90
2018-05-23T05:37:27.065Z,1.80
2018-05-23T05:40:07.887Z,2.17
2018-05-23T05:42:37.773Z,1.87
2018-05-23T05:45:07.298Z,2.03
2018-05-23T05:47:36.994Z,2.10
2018-05-23T05:50:06.375Z,2.17
2018-05-23T05:52:35.283Z,2.17
2018-05-23T05:55:06.782Z,2.20
2018-05-23T05:57:36.694Z,2.20
2018-05-23T06:00:05.598Z,2.00
2018-05-23T06:02:34.054Z,2.40
2018-05-23T06:05:03.727Z,2.30
2018-05-23T06:07:33.578Z,2.43
2018-05-23T06:10:05.735Z,2.17
2018-05-23T06:12:36.390Z,2.50
2018-05-23T06:15:07.888Z,2.30
2018-05-23T06:17:37.767Z,1.80
2018-05-23T06:20:14.091Z,2.37
2018-05-23T06:22:43.919Z,2.00
2018-05-23T06:25:14.242Z,2.30
2018-05-23T06:27:44.317Z,2.10
2018-05-23T06:30:26.028Z,2.37
2018-05-23T06:32:57.231Z,2.10
2018-05-23T06:35:26.914Z,1.90
2018-05-23T06:37:57.340Z,1.97
2018-05-23T06:40:34.591Z,1.73
2018-05-23T06:43:03.174Z,2.00
2018-05-23T06:45:33.011Z,2.03
2018-05-23T06:48:03.890Z,1.90
2018-05-23T06:50:34.649Z,2.10
2018-05-23T06:53:03.005Z,1.87
2018-05-23T06:55:31.693Z,1.90
2018-05-23T06:58:00.794Z,2.00
2018-05-23T07:00:31.112Z,1.83
2018-05-23T07:03:00.131Z,1.90
2018-05-23T07:05:29.302Z,1.93
2018-05-23T07:07:59.226Z,2.10
2018-05-23T07:13:09.879Z,2.00
2018-05-23T07:15:39.266Z,2.10
2018-05-23T07:18:08.864Z,1.93
2018-05-23T07:20:54.203Z,1.90
2018-05-23T07:23:22.790Z,2.20
2018-05-23T07:25:53.136Z,2.20
2018-05-23T07:28:23.659Z,2.20
2018-05-23T07:31:09.474Z,2.00
2018-05-23T07:33:38.459Z,2.17
2018-05-23T07:36:07.839Z,2.23
2018-05-23T07:38:38.951Z,1.90
2018-05-23T07:41:31.739Z,2.30
2018-05-23T07:44:01.635Z,2.00
2018-05-23T07:46:31.610Z,1.87
2018-05-23T07:49:01.268Z,2.10
2018-05-23T07:51:35.834Z,1.90
2018-05-23T07:54:05.999Z,1.80
2018-05-23T07:56:35.950Z,1.80
2018-05-23T07:59:05.262Z,1.80
2018-05-23T08:01:34.733Z,1.70
2018-05-23T08:04:03.870Z,1.67
2018-05-23T08:06:34.434Z,2.10
2018-05-23T08:09:05.602Z,2.03
2018-05-23T08:11:40.610Z,1.73
2018-05-23T08:14:10.892Z,2.00
2018-05-23T08:16:41.127Z,2.30
2018-05-23T08:19:10.594Z,2.63
2018-05-23T08:21:51.563Z,2.50
2018-05-23T08:24:22.361Z,2.67
2018-05-23T08:26:52.706Z,2.67
2018-05-23T08:29:22.682Z,2.50
2018-05-23T08:31:55.020Z,2.57
2018-05-23T08:34:25.513Z,2.27
2018-05-23T08:36:55.146Z,2.27
2018-05-23T08:39:25.432Z,2.57
2018-05-23T08:42:08.539Z,1.90
2018-05-23T08:44:37.704Z,2.30
2018-05-23T08:47:07.979Z,2.43
2018-05-23T08:49:36.638Z,2.07
2018-05-23T08:52:05.778Z,2.23
2018-05-23T08:54:36.229Z,2.37
2018-05-23T08:57:05.386Z,2.20
2018-05-23T08:59:36.052Z,2.17
2018-05-23T09:02:05.823Z,2.10
2018-05-23T09:04:36.298Z,2.20
2018-05-23T09:07:06.042Z,2.00
2018-05-23T09:09:37.214Z,1.93
2018-05-23T09:12:07.288Z,2.10
2018-05-23T09:15:04.140Z,2.30
2018-05-23T09:17:34.529Z,2.20
2018-05-23T09:20:03.743Z,2.37
2018-05-23T09:22:33.211Z,2.10
2018-05-23T09:25:16.576Z,2.20
2018-05-23T09:27:45.906Z,2.30
2018-05-23T09:30:16.786Z,1.90
2018-05-23T09:32:46.078Z,2.20
2018-05-23T09:35:15.802Z,1.97
2018-05-23T09:37:46.626Z,1.80
2018-05-23T09:40:15.731Z,2.37
2018-05-23T09:42:44.910Z,1.97
2018-05-23T09:45:14.312Z,2.20
2018-05-23T09:47:43.742Z,1.90
2018-05-23T09:50:14.552Z,2.13
2018-05-23T09:52:43.863Z,2.10
2018-05-23T09:55:13.721Z,1.90
2018-05-23T09:57:44.158Z,2.00
2018-05-23T10:00:14.233Z,2.23
2018-05-23T10:02:44.438Z,2.13
2018-05-23T10:05:20.382Z,2.17
2018-05-23T10:07:51.811Z,3.00
2018-05-23T10:10:21.470Z,2.60
2018-05-23T10:12:50.737Z,2.80
2018-05-23T10:15:21.926Z,2.27
2018-05-23T10:17:51.251Z,2.13
2018-05-23T10:20:22.034Z,2.50
2018-05-23T10:22:51.743Z,3.00
2018-05-23T10:25:21.256Z,3.10
2018-05-23T10:27:52.186Z,3.07
2018-05-23T10:30:21.106Z,3.23
2018-05-23T10:32:50.768Z,3.23
2018-05-23T10:35:20.047Z,3.23
2018-05-23T10:37:50.319Z,2.90
2018-05-23T10:40:20.528Z,2.40
2018-05-23T10:42:49.722Z,2.37
2018-05-23T10:45:20.863Z,2.20
2018-05-23T10:47:50.240Z,1.97
2018-05-23T10:50:20.918Z,2.63
2018-05-23T10:52:50.271Z,3.07
2018-05-23T10:57:55.743Z,2.40
2018-05-23T11:00:24.533Z,2.63
2018-05-23T11:02:54.610Z,3.13
2018-05-23T11:05:26.399Z,2.33
2018-05-23T11:07:56.198Z,2.70
2018-05-23T11:10:25.402Z,2.57
2018-05-23T11:12:54.027Z,2.47
2018-05-23T11:15:23.041Z,2.83
2018-05-23T11:17:53.414Z,2.53
2018-05-23T11:20:22.114Z,2.90
2018-05-23T11:22:52.877Z,2.57
2018-05-23T11:25:23.509Z,2.77
2018-05-23T11:27:53.426Z,3.40
2018-05-23T11:30:24.056Z,3.03
2018-05-23T11:32:54.025Z,3.23
2018-05-23T11:35:24.004Z,2.63
2018-05-23T11:37:53.382Z,2.70
2018-05-23T11:40:23.832Z,2.80
2018-05-23T11:42:53.689Z,2.33
2018-05-23T11:45:25.534Z,2.50
2018-05-23T11:47:55.515Z,2.60
2018-05-23T11:50:25.290Z,2.60
2018-05-23T11:52:55.033Z,2.53
2018-05-23T11:55:42.427Z,2.97
2018-05-23T11:58:12.455Z,3.07
2018-05-23T12:00:41.955Z,2.67
2018-05-23T12:03:12.674Z,2.67
2018-05-23T12:05:48.595Z,2.60
2018-05-23T12:08:18.462Z,2.70
2018-05-23T12:10:48.596Z,2.50
2018-05-23T12:13:20.138Z,2.60
2018-05-23T12:15:52.319Z,3.17
2018-05-23T12:18:22.775Z,2.87
2018-05-23T12:20:51.906Z,3.07
2018-05-23T12:23:22.790Z,2.70
2018-05-23T12:26:01.925Z,2.70
2018-05-23T12:28:31.427Z,2.50
2018-05-23T12:31:03.647Z,2.97
2018-05-23T12:33:34.111Z,3.00
2018-05-23T12:36:06.469Z,2.83
2018-05-23T12:38:36.078Z,3.03
2018-05-23T12:41:06.661Z,2.60
2018-05-23T12:43:36.043Z,2.80
2018-05-23T12:46:07.241Z,2.63
2018-05-23T12:48:36.578Z,2.63
2018-05-23T12:51:06.254Z,3.00
2018-05-23T12:53:36.338Z,2.70
2018-05-23T12:56:04.655Z,2.60
2018-05-23T12:58:35.637Z,2.80
2018-05-23T13:01:08.355Z,2.70
2018-05-23T13:03:40.478Z,2.87
2018-05-23T13:06:16.080Z,2.53
2018-05-23T13:08:45.850Z,2.70
2018-05-23T13:11:15.916Z,2.80
2018-05-23T13:13:54.239Z,3.10
2018-05-23T13:16:38.963Z,2.47
2018-05-23T13:19:09.415Z,2.67
2018-05-23T13:21:39.087Z,2.83
2018-05-23T13:24:08.095Z,2.80
2018-05-23T13:26:40.273Z,3.00
2018-05-23T13:29:09.952Z,2.70
2018-05-23T13:31:40.577Z,2.90
2018-05-23T13:34:10.509Z,2.90
2018-05-23T13:36:41.956Z,2.70
2018-05-23T13:39:11.990Z,3.00
2018-05-23T13:41:42.319Z,2.60
2018-05-23T13:44:12.438Z,2.70
2018-05-23T13:46:43.618Z,3.10
2018-05-23T13:49:12.980Z,2.87
2018-05-23T13:51:47.274Z,2.77
2018-05-23T13:54:18.110Z,2.50
2018-05-23T13:56:54.702Z,2.70
2018-05-23T13:59:24.802Z,2.90
2018-05-23T14:01:54.080Z,3.40
2018-05-23T14:04:23.090Z,2.80
2018-05-23T14:06:56.470Z,2.83
2018-05-23T14:09:26.262Z,2.80
2018-05-23T14:11:55.797Z,2.53
2018-05-23T14:14:25.250Z,2.80
2018-05-23T14:17:01.359Z,2.83
2018-05-23T14:19:30.743Z,2.67
2018-05-23T14:22:00.746Z,2.90
2018-05-23T14:24:29.660Z,2.43
2018-05-23T14:27:02.907Z,2.93
2018-05-23T14:29:32.989Z,2.63
2018-05-23T14:32:03.396Z,2.77
2018-05-23T14:34:34.034Z,2.73
2018-05-23T14:37:10.638Z,3.03
2018-05-23T14:39:39.909Z,3.40
2018-05-23T14:42:09.067Z,3.10
2018-05-23T14:44:40.291Z,3.03
2018-05-23T14:47:08.874Z,3.10
2018-05-23T14:49:38.487Z,3.47
2018-05-23T14:52:08.585Z,3.00
2018-05-23T14:54:37.279Z,3.00
2018-05-23T14:57:07.074Z,3.53
2018-05-23T14:59:36.098Z,3.70
2018-05-23T15:02:05.402Z,3.43
2018-05-23T15:04:35.258Z,3.40
2018-05-23T15:55:04.482Z,3.90
2018-05-23T15:57:33.009Z,3.77
2018-05-23T16:00:02.389Z,3.77
2018-05-23T16:02:32.981Z,3.33
2018-05-23T16:05:02.936Z,3.77
2018-05-23T16:07:34.695Z,4.47
2018-05-23T16:10:05.130Z,3.87
2018-05-23T16:12:34.631Z,4.10
2018-05-23T16:15:04.110Z,3.97
2018-05-23T16:17:33.666Z,4.07
2018-05-23T16:20:03.156Z,4.13
2018-05-23T16:22:32.170Z,4.00
2018-05-23T16:25:01.137Z,4.87
2018-05-23T16:27:30.421Z,4.10
2018-05-23T16:29:59.920Z,3.97
2018-05-23T16:32:30.197Z,4.13
2018-05-23T16:34:59.191Z,4.90
2018-05-23T16:37:27.620Z,4.33
2018-05-23T16:39:57.110Z,4.50
2018-05-23T16:42:25.479Z,4.60
2018-05-23T16:44:53.997Z,4.53
2018-05-23T16:47:24.298Z,4.43
2018-05-23T16:50:01.215Z,4.67
2018-05-23T16:52:30.979Z,4.57
2018-05-23T16:55:00.218Z,4.73
2018-05-23T16:57:30.487Z,4.57
2018-05-23T17:00:01.825Z,5.27
2018-05-23T17:02:30.954Z,6.00
2018-05-23T17:05:01.295Z,4.90
2018-05-23T17:07:31.522Z,4.37
2018-05-23T17:10:02.028Z,4.83
2018-05-23T17:12:32.881Z,4.90
2018-05-23T17:15:02.758Z,4.30
2018-05-23T17:17:32.466Z,4.73
2018-05-23T17:20:06.477Z,4.90
2018-05-23T17:22:36.104Z,5.00
2018-05-23T17:25:05.704Z,4.60
2018-05-23T17:27:36.162Z,4.60
2018-05-23T17:30:14.922Z,4.93
2018-05-23T17:32:44.685Z,4.60
2018-05-23T17:35:14.918Z,4.50
2018-05-23T17:37:44.430Z,5.00
2018-05-23T17:40:13.686Z,4.60
2018-05-23T17:42:43.205Z,4.60
2018-05-23T17:45:13.022Z,4.57
2018-05-23T17:47:41.439Z,4.30
2018-05-23T17:50:10.275Z,4.30
2018-05-23T17:52:42.478Z,4.33
2018-05-23T17:55:11.458Z,4.33
2018-05-23T17:57:40.670Z,4.47
2018-05-23T18:00:10.676Z,4.03
2018-05-23T18:02:40.879Z,4.30
2018-05-23T18:05:11.409Z,4.53
2018-05-23T18:07:41.594Z,4.70
2018-05-23T18:10:11.799Z,4.67
2018-05-23T18:12:43.294Z,3.73
2018-05-23T18:15:13.592Z,4.50
2018-05-23T18:17:43.837Z,4.97
2018-05-23T18:20:12.666Z,3.87
2018-05-23T18:22:42.147Z,4.23
2018-05-23T18:25:11.974Z,4.40
2018-05-23T18:27:40.330Z,4.23
2018-05-23T18:30:12.346Z,4.53
2018-05-23T18:32:43.490Z,4.07
2018-05-23T18:35:13.634Z,4.20
2018-05-23T18:37:42.910Z,4.43
2018-05-23T18:40:12.258Z,4.57
2018-05-23T18:42:41.474Z,4.10
2018-05-23T18:45:11.727Z,4.07
2018-05-23T18:47:40.983Z,4.10
2018-05-23T18:50:11.361Z,4.53
2018-05-23T18:55:35.163Z,4.07
2018-05-23T18:58:04.014Z,4.07
2018-05-23T19:00:34.686Z,4.00
2018-05-23T19:03:04.726Z,4.87
2018-05-23T19:05:35.630Z,3.83
2018-05-23T19:08:03.930Z,4.13
2018-05-23T19:10:35.083Z,4.93
2018-05-23T19:13:03.426Z,3.87
2018-05-23T19:15:37.283Z,3.87
2018-05-23T19:18:06.687Z,4.30
2018-05-23T19:20:35.863Z,4.33
2018-05-23T19:23:05.082Z,3.97
2018-05-23T19:25:34.759Z,4.30
2018-05-23T19:28:05.038Z,3.80
2018-05-23T19:30:34.447Z,4.07
2018-05-23T19:33:06.390Z,3.80
2018-05-23T19:35:38.078Z,3.83
2018-05-23T19:38:07.342Z,3.97
2018-05-23T19:40:37.679Z,3.70
2018-05-23T19:43:07.157Z,3.70
2018-05-23T19:45:37.651Z,3.70
2018-05-23T19:48:08.690Z,3.83
2018-05-23T19:50:37.358Z,3.37
2018-05-23T19:53:07.617Z,3.27
2018-05-23T19:55:39.291Z,3.60
2018-05-23T19:58:09.421Z,3.77
2018-05-23T20:00:40.571Z,3.57
2018-05-23T20:03:10.442Z,3.50
2018-05-23T20:05:48.247Z,3.63
2018-05-23T20:08:18.542Z,4.03
2018-05-23T20:10:47.569Z,3.67
2018-05-23T20:13:17.204Z,3.90
2018-05-23T20:15:55.220Z,3.77
2018-05-23T20:18:25.653Z,3.30
2018-05-23T20:20:54.090Z,3.53
2018-05-23T20:23:22.990Z,3.50
2018-05-23T20:25:54.043Z,3.67
2018-05-23T20:28:22.937Z,3.53
2018-05-23T20:30:53.738Z,3.87
2018-05-23T20:33:23.373Z,3.50
2018-05-23T20:35:53.384Z,3.60
2018-05-23T20:38:23.279Z,3.00
2018-05-23T20:40:52.312Z,3.00
2018-05-23T20:43:21.190Z,3.47
2018-05-23T20:45:50.678Z,2.80
2018-05-23T20:48:20.566Z,3.50
2018-05-23T20:50:50.118Z,3.60
2018-05-23T20:53:19.929Z,3.20
2018-05-23T20:55:55.638Z,3.23
2018-05-23T20:58:24.958Z,3.60
2018-05-23T21:00:54.399Z,3.13
2018-05-23T21:03:22.765Z,3.20
2018-05-23T21:05:53.167Z,3.47
2018-05-23T21:08:23.002Z,3.03
2018-05-23T21:10:52.367Z,3.03
2018-05-23T21:13:22.362Z,2.60
2018-05-23T21:15:52.203Z,3.13
2018-05-23T21:18:21.028Z,3.30
2018-05-23T21:20:50.303Z,3.17
2018-05-23T21:23:19.962Z,3.10
2018-05-23T21:25:50.211Z,3.40
2018-05-23T21:28:20.434Z,3.13
2018-05-23T21:30:49.998Z,2.80
2018-05-23T21:33:18.542Z,3.10
2018-05-23T21:35:47.094Z,3.10
2018-05-23T21:38:17.241Z,3.00
2018-05-23T21:40:46.782Z,2.87
2018-05-23T21:43:16.658Z,2.23
2018-05-23T21:46:02.451Z,2.73
2018-05-23T21:48:33.866Z,2.70
2018-05-23T21:51:03.403Z,2.57
2018-05-23T21:53:33.867Z,2.40
2018-05-23T21:56:03.102Z,3.20
2018-05-23T21:58:33.254Z,3.10
2018-05-23T22:01:03.850Z,3.27
2018-05-23T22:03:32.926Z,2.93
2018-05-23T22:06:02.586Z,2.70
2018-05-23T22:08:31.933Z,2.43
2018-05-23T22:11:01.173Z,2.80
2018-05-23T22:13:31.594Z,2.67
2018-05-23T22:16:02.166Z,2.60
2018-05-23T22:18:31.307Z,2.80
2018-05-23T22:21:01.623Z,2.20
2018-05-23T22:23:30.103Z,2.33
2018-05-23T22:26:01.152Z,2.90
2018-05-23T22:28:30.070Z,2.93
2018-05-23T22:30:59.923Z,2.80
2018-05-23T22:33:30.006Z,3.00
2018-05-23T22:36:01.054Z,2.70
2018-05-23T22:38:30.845Z,2.70
2018-05-23T22:41:01.286Z,2.90
2018-05-23T22:43:31.229Z,2.60
2018-05-23T22:46:01.757Z,2.60
2018-05-23T22:48:31.610Z,2.73
2018-05-23T22:50:59.934Z,2.73
2018-05-23T22:53:30.290Z,2.53
2018-05-23T22:56:00.230Z,2.67
2018-05-23T22:58:29.050Z,2.73
2018-05-23T23:01:00.026Z,2.90
2018-05-23T23:03:29.674Z,2.67
2018-05-23T23:06:06.801Z,2.80
2018-05-23T23:08:37.274Z,2.60
2018-05-23T23:11:06.550Z,2.63
2018-05-23T23:13:36.605Z,2.60
2018-05-23T23:16:09.825Z,2.67
2018-05-23T23:18:40.283Z,2.70
2018-05-23T23:21:10.163Z,2.67
2018-05-23T23:23:39.855Z,2.90
2018-05-23T23:26:09.274Z,2.87
2018-05-23T23:28:38.583Z,2.73
2018-05-23T23:31:08.870Z,2.20
2018-05-23T23:33:39.426Z,2.73
2018-05-23T23:36:11.666Z,3.20
2018-05-23T23:38:43.322Z,2.80
2018-05-23T23:41:14.991Z,2.90
2018-05-23T23:43:43.869Z,3.00
2018-05-23T23:46:14.305Z,2.67
2018-05-23T23:48:44.434Z,2.90
2018-05-23T23:51:13.515Z,2.50
2018-05-23T23:53:43.962Z,2.60
2018-05-23T23:56:13.190Z,3.10
2018-05-23T23:58:42.010Z,3.10
